• Join FlightAware (Why Join?)
  • Login
  • US Flag 
03:09PM EDT


 

Airport Tracker/Info


-or-


 

Live Flight TrackerFlight Track Log ✈ TCF3452 ✈ 08-May-2013 ✈ KDEN - KCID

Flight Track Log - Related Links

Times and Time Zones

All times are in EDT time to prevent confusion due to time zone crossing. See the TCF3452 flight status page for this flight to view local times or setup timezone preferences in your user account.

Time Position Orientation Groundspeed Altitude Reporting Facility
EDT Latitude Longitude Course Direction KTS MPH feet Rate Location/Type
07:54PM 39.8167 -104.6167 27° Northeast 174 200 6,600  Level Denver TRACON
07:55PM 39.8333 -104.5667 67° East 215 247 7,800 1,680 Climbing Denver TRACON
07:56PM 40.1056 -104.4222 323° Northwest  Level FlightAware Approximate
07:56PM 39.8833 -104.4833 52° Northeast 267 307 9,900  Level Denver TRACON
07:57PM 40.1927 -104.5000 North  Level FlightAware Approximate
07:57PM 39.9667 -104.4667 North 324 373 10,700  Level Denver TRACON
07:58PM 40.3000 -104.5000 37° Northeast  Level FlightAware Approximate
07:58PM 40.0500 -104.4667 360° North 319 367 13,900  Level Denver TRACON
07:59PM 40.3763 -104.4102 27° Northeast  Level FlightAware Approximate
07:59PM 40.1408 -104.4758 356° North 326 375 16,600  Level Denver Center
08:00PM 40.2367 -104.4742 North 346 398 18,700 2,160 Climbing Denver Center
08:01PM 40.3308 -104.4103 27° Northeast 353 406 21,100 2,160 Climbing Denver Center
08:02PM 40.4181 -104.3456 29° Northeast 362 417 23,200 2,280 Climbing Denver Center
08:03PM 40.5136 -104.2783 28° Northeast 362 417 25,900 2,100 Climbing Denver Center
08:04PM 40.5983 -104.2139 30° Northeast 353 406 27,600 1,380 Climbing Denver Center
08:05PM 40.6747 -104.1097 46° Northeast 371 427 28,800 960 Climbing Denver Center
08:06PM 40.7467 -104.0192 44° Northeast 377 434 29,600 900 Climbing Denver Center
08:07PM 40.8367 -103.9031 44° Northeast 402 463 30,700 960 Climbing Denver Center
08:08PM 40.9161 -103.8011 44° Northeast 414 476 31,600 960 Climbing Denver Center
08:09PM 41.0117 -103.6781 44° Northeast 425 489 32,700 840 Climbing Denver Center
08:10PM 41.0800 -103.5886 45° Northeast 430 495 33,400 1,080 Climbing Denver Center
08:11PM 41.1867 -103.4486 45° Northeast 425 489 35,000 720 Climbing Denver Center
08:12PM 41.2647 -103.3472 44° Northeast 416 479 35,000  Level Denver Center
08:13PM 41.3536 -103.2286 45° Northeast 408 470 35,000  Level Denver Center
08:14PM 41.4114 -103.1047 58° Northeast 420 483 35,000  Level Denver Center
08:16PM 41.4447 -102.9194 76° East 408 470 35,000  Level Denver Center
08:17PM 41.4697 -102.7800 77° East 407 468 35,000  Level Denver Center
08:18PM 41.4978 -102.6156 77° East 409 471 35,000  Level Denver Center
08:19PM 41.5228 -102.4769 76° East 413 475 35,000  Level Denver Center
08:20PM 41.5467 -102.3347 77° East 412 474 35,000 -480 Level Denver Center
08:21PM 41.5756 -102.1686 77° East 411 473 34,000 -900 Descending Denver Center
08:22PM 41.6064 -101.9794 78° East 409 471 33,000 -540 Descending Denver Center
08:23PM 41.6344 -101.8064 78° East 423 487 33,000  Level Denver Center
08:24PM 41.6603 -101.6575 77° East 428 493 33,000  Level Denver Center
08:25PM 41.6842 -101.5092 78° East 426 490 33,000  Level Denver Center
08:26PM 41.7081 -101.3589 78° East 429 494 33,000  Level Denver Center
08:27PM 41.7353 -101.1858 78° East 427 491 33,000  Level Denver Center
08:28PM 41.7636 -101.0125 78° East 426 490 33,000  Level Denver Center
08:29PM 41.7872 -100.8636 78° East 426 490 33,000  Level Denver Center
08:30PM 41.8133 -100.6908 78° East 424 488 33,000  Level Denver Center
08:31PM 41.8406 -100.5158 78° East 428 493 33,000  Level Denver Center
08:33PM 41.8667 -100.3406 79° East 427 491 33,000  Level Denver Center
08:34PM 41.8969 -100.1383 79° East 432 497 33,000  Level Denver Center
08:34PM 41.9119 -100.0458 78° East 435 501 33,000  Level Minneapolis Center
08:35PM 41.9194 -99.9869 80° East 432 497 33,000  Level Denver Center
08:36PM 41.9492 -99.7842 79° East 434 499 33,000  Level Denver Center
08:37PM 41.9750 -99.6019 79° East 433 498 33,000  Level Denver Center
08:38PM 41.9983 -99.4403 79° East 437 503 33,000  Level Denver Center
08:39PM 42.0214 -99.2781 79° East 440 506 33,000  Level Denver Center
08:40PM 42.0489 -99.0822 79° East 442 509 33,000  Level Denver Center
08:41PM 42.0603 -98.9144 85° East 449 517 33,000  Level Denver Center
08:42PM 42.0611 -98.7814 89° East 448 516 33,000  Level Denver Center
08:43PM 42.0619 -98.5789 90° East 449 517 33,000  Level Denver Center
08:44PM 42.0617 -98.4097 90° East 449 517 33,000  Level Denver Center
08:46PM 42.0342 -98.1994 100° East 470 541 33,000  Level Minneapolis Center
08:47PM 42.0150 -98.0331 99° East 470 541 33,000  Level Minneapolis Center
08:48PM 41.9953 -97.8233 97° East 471 542 33,000  Level Minneapolis Center
08:49PM 41.9789 -97.6486 97° East 471 542 33,000  Level Minneapolis Center
08:50PM 41.9656 -97.4772 96° East 466 536 33,000  Level Minneapolis Center
08:51PM 41.9592 -97.3044 93° East 464 534 33,000  Level Minneapolis Center
08:52PM 41.9633 -97.1269 88° East 470 541 33,000  Level Minneapolis Center
08:53PM 41.9644 -96.9500 89° East 473 544 33,000  Level Minneapolis Center
08:54PM 41.9650 -96.7742 90° East 472 543 33,000  Level Minneapolis Center
08:55PM 41.9664 -96.5617 89° East 471 542 33,000  Level Minneapolis Center
08:56PM 41.9672 -96.3858 90° East 471 542 33,000  Level Minneapolis Center
08:57PM 41.9672 -96.2089 90° East 470 541 33,000  Level Minneapolis Center
08:58PM 41.9678 -96.0317 90° East 471 542 33,000  Level Minneapolis Center
08:59PM 41.9675 -95.8578 90° East 465 535 33,000  Level Minneapolis Center
09:00PM 41.9667 -95.6819 90° East 468 539 33,000  Level Minneapolis Center
09:01PM 41.9658 -95.4717 90° East 467 537 33,000  Level Minneapolis Center
09:02PM 41.9639 -95.2639 91° East 463 533 33,000  Level Minneapolis Center
09:03PM 41.9633 -95.0942 90° East 456 525 33,000  Level Minneapolis Center
09:05PM 41.9611 -94.9247 91° East 452 520 33,000 -600 Level Minneapolis Center
09:06PM 41.9586 -94.7536 91° East 457 526 31,800 -1,440 Descending Minneapolis Center
09:07PM 41.9561 -94.5803 91° East 461 531 30,100 -1,560 Descending Minneapolis Center
09:08PM 41.9550 -94.4094 90° East 459 528 28,300 -1,680 Descending Minneapolis Center
09:09PM 41.9517 -94.2400 91° East 453 521 26,400 -2,340 Descending Minneapolis Center
09:10PM 41.9469 -93.9994 91° East 461 531 23,500 -2,220 Descending Minneapolis Center
09:11PM 41.9444 -93.8236 91° East 457 526 21,800 -1,440 Descending Minneapolis Center
09:12PM 41.9406 -93.6539 92° East 446 513 20,600 -900 Descending Minneapolis Center
09:13PM 41.9386 -93.4928 91° East 436 502 20,000 -600 Descending Minneapolis Center
09:14PM 41.9347 -93.3375 92° East 425 489 19,400 -480 Descending Minneapolis Center
09:15PM 41.9306 -93.1836 92° East 419 482 19,000 -180 Descending Minneapolis Center
09:16PM 41.9256 -92.9992 92° East 416 479 19,000  Level Minneapolis Center
09:17PM 41.9206 -92.8142 92° East 416 479 19,000  Level Minneapolis Center
09:19PM 41.9167 -92.6686 92° East 420 483 19,000  Level Minneapolis Center
09:19PM 41.9128 -92.5153 92° East 413 475 19,000  Level Chicago Center
09:20PM 41.9075 -92.3625 93° East 414 476 19,000 -420 Level Chicago Center
09:21PM 41.9003 -92.1772 93° East 420 483 18,200 -1,440 Descending Chicago Center
09:22PM 41.8972 -92.0425 92° East 383 441 16,100 -2,040 Descending Chicago Center
09:23PM 41.8919 -91.9103 93° East 366 421 14,100 -1,800 Descending Chicago Center
09:25PM 41.8872 -91.7814 93° East 355 409 12,400 -1,620 Descending Chicago Center
09:26PM 41.8858 -91.6647 91° East 324 373 10,800 -1,920 Descending Chicago Center
09:27PM 41.9175 -91.5456 70° East 315 362 8,500 -1,800 Descending Chicago Center
09:28PM 41.9550 -91.4647 58° Northeast 274 315 7,100 -1,380 Descending Chicago Center
09:29PM 41.9039 -91.4500 168° South 226 260 5,700 -1,620 Descending Chicago Center
09:30PM 41.8869 -91.5258 253° West 217 250 3,900 -1,800 Descending Chicago Center